Huvudsida
METAR-TAF:

METAR-TAF

Flygplatser :

Göteborg-Landvetter, Sverige

Göteborg-Landvetter Airport

latitud: 57-40N, longitud: 012-18E, höjd: 169 m

Aktuellt väderrapport

Denna rapport gjordes för 19 minuter sedan, klockan 12:50 UTC
Vind 12 kt från väst/sydväst, varierande mellan väst/sydväst och väst/nordväst
Temperatur 19°C
Fuktighet 68%
Tryck 1018 hPa
Sikt 10 km eller mer
Spridda moln på en höjd av 4200 ft

METAR: ESGG 161250Z 25012KT 240V300 9999 SCT042 19/13 Q1018

Tid: 15:09 (13:09 UTC)

Väderprognos

Denna rapport gjordes för 1 timme och 39 minuter sedan, klockan 11:30 UTC
Prognos gäller från 16 kl. 12 UTC till 17 kl. 12 UTC
Vind 10 kt från väst/sydväst
Sikt 10 km eller mer
Spridda moln på en höjd av 2500 ft
Blir
från 16 kl. 20 UTC till 16 kl. 23 UTC
Vind 4 kt från syd/sydost
Sannolikhet 40%
från 16 kl. 23 UTC till 17 kl. 05 UTC
Sikt: 2000 m
fuktdis

TAF: ESGG 161130Z 1612/1712 24010KT 9999 SCT025 BECMG 1620/1623 16004KT PROB40 1623/1705 2000 BR

Aktuella väderrapporter och prognoser från 4000 flygplatser (METAR- och TAF-rapporter).

De tillgängliga stationerna syns som gula och röda prickar på kartan.

För musen över prickarna för att se namnen på stationerna.

Klicka sedan för att få väderrapporter och prognoser.

För att ändra kartan: Klicka på de gröna knapparna med ett svart kors på för att zooma in; den gröna knappen med ett streck på för att zooma ut; eller på de gröna pilarna för angränsande kartor.


METAR-TAF: